sensor_id;sensor_type;location;lat;lon;timestamp;pressure;altitude;pressure_sealevel;temperature;humidity
13594;BME280;6449;47.666;9.160;2022-11-25T00:00:53;96909.41;;;4.26;100.00
13594;BME280;6449;47.666;9.160;2022-11-25T00:05:46;96919.78;;;4.26;100.00
13594;BME280;6449;47.666;9.160;2022-11-25T00:10:40;96918.09;;;4.08;100.00
13594;BME280;6449;47.666;9.160;2022-11-25T00:15:33;96923.22;;;4.27;100.00
13594;BME280;6449;47.666;9.160;2022-11-25T00:20:28;96924.81;;;4.29;100.00
13594;BME280;6449;47.666;9.160;2022-11-25T00:25:21;96935.66;;;4.37;100.00
13594;BME280;6449;47.666;9.160;2022-11-25T00:30:15;96936.25;;;4.42;100.00
13594;BME280;6449;47.666;9.160;2022-11-25T00:35:08;96950.88;;;4.61;100.00
13594;BME280;6449;47.666;9.160;2022-11-25T00:40:04;96943.06;;;4.78;100.00
13594;BME280;6449;47.666;9.160;2022-11-25T00:44:58;96932.88;;;4.91;100.00
13594;BME280;6449;47.666;9.160;2022-11-25T00:49:53;96938.97;;;4.74;100.00
13594;BME280;6449;47.666;9.160;2022-11-25T00:54:47;96948.94;;;4.82;100.00
13594;BME280;6449;47.666;9.160;2022-11-25T00:59:43;96961.03;;;4.98;100.00
13594;BME280;6449;47.666;9.160;2022-11-25T01:04:36;96969.53;;;5.02;100.00
13594;BME280;6449;47.666;9.160;2022-11-25T01:09:30;96968.28;;;5.09;100.00
13594;BME280;6449;47.666;9.160;2022-11-25T01:14:24;96987.16;;;5.13;100.00
13594;BME280;6449;47.666;9.160;2022-11-25T01:19:19;96989.25;;;5.06;100.00
13594;BME280;6449;47.666;9.160;2022-11-25T01:24:14;96982.44;;;5.04;100.00
13594;BME280;6449;47.666;9.160;2022-11-25T01:29:13;96984.19;;;5.03;100.00
13594;BME280;6449;47.666;9.160;2022-11-25T01:34:12;96979.75;;;5.05;100.00
13594;BME280;6449;47.666;9.160;2022-11-25T01:39:07;96979.59;;;5.08;100.00
13594;BME280;6449;47.666;9.160;2022-11-25T01:44:11;96985.53;;;5.10;100.00
13594;BME280;6449;47.666;9.160;2022-11-25T01:49:11;96975.28;;;4.91;100.00
13594;BME280;6449;47.666;9.160;2022-11-25T01:54:10;96960.53;;;4.92;100.00
13594;BME280;6449;47.666;9.160;2022-11-25T01:59:05;96955.94;;;4.97;100.00
13594;BME280;6449;47.666;9.160;2022-11-25T02:03:59;96966.69;;;5.07;100.00
13594;BME280;6449;47.666;9.160;2022-11-25T02:08:57;96945.31;;;5.02;100.00
13594;BME280;6449;47.666;9.160;2022-11-25T02:13:54;96951.31;;;4.86;100.00
13594;BME280;6449;47.666;9.160;2022-11-25T02:18:48;96940.00;;;4.87;100.00
13594;BME280;6449;47.666;9.160;2022-11-25T02:23:50;96952.16;;;4.87;100.00
13594;BME280;6449;47.666;9.160;2022-11-25T02:28:46;96950.00;;;4.78;100.00
13594;BME280;6449;47.666;9.160;2022-11-25T02:33:40;96947.94;;;4.84;100.00
13594;BME280;6449;47.666;9.160;2022-11-25T02:38:38;96947.75;;;4.71;100.00
13594;BME280;6449;47.666;9.160;2022-11-25T02:43:33;96948.75;;;4.69;100.00
13594;BME280;6449;47.666;9.160;2022-11-25T02:48:31;96958.31;;;4.84;100.00
13594;BME280;6449;47.666;9.160;2022-11-25T02:53:46;96962.84;;;4.81;100.00
13594;BME280;6449;47.666;9.160;2022-11-25T02:58:40;96946.72;;;4.58;100.00
13594;BME280;6449;47.666;9.160;2022-11-25T03:03:35;96955.56;;;4.54;100.00
13594;BME280;6449;47.666;9.160;2022-11-25T03:08:29;96945.50;;;4.48;100.00
13594;BME280;6449;47.666;9.160;2022-11-25T03:13:23;96940.81;;;4.55;100.00
13594;BME280;6449;47.666;9.160;2022-11-25T03:18:16;96933.56;;;4.61;100.00
13594;BME280;6449;47.666;9.160;2022-11-25T03:23:11;96941.66;;;4.55;100.00
13594;BME280;6449;47.666;9.160;2022-11-25T03:28:04;96955.47;;;4.56;100.00
13594;BME280;6449;47.666;9.160;2022-11-25T03:32:58;96965.63;;;4.60;100.00
13594;BME280;6449;47.666;9.160;2022-11-25T03:37:51;96969.44;;;4.70;100.00
13594;BME280;6449;47.666;9.160;2022-11-25T03:42:46;96971.97;;;4.55;100.00
13594;BME280;6449;47.666;9.160;2022-11-25T03:47:40;96972.13;;;4.52;100.00
13594;BME280;6449;47.666;9.160;2022-11-25T03:52:34;96976.75;;;4.62;100.00
13594;BME280;6449;47.666;9.160;2022-11-25T03:57:28;96983.88;;;4.59;100.00
13594;BME280;6449;47.666;9.160;2022-11-25T04:02:23;96974.72;;;4.52;100.00
13594;BME280;6449;47.666;9.160;2022-11-25T04:07:16;96965.63;;;4.60;100.00
13594;BME280;6449;47.666;9.160;2022-11-25T04:12:10;96963.47;;;4.68;100.00
13594;BME280;6449;47.666;9.160;2022-11-25T04:17:22;96976.03;;;4.43;100.00
13594;BME280;6449;47.666;9.160;2022-11-25T04:22:15;96967.16;;;4.47;100.00
13594;BME280;6449;47.666;9.160;2022-11-25T04:27:08;96965.31;;;4.66;100.00
13594;BME280;6449;47.666;9.160;2022-11-25T04:32:02;96973.34;;;4.62;100.00
13594;BME280;6449;47.666;9.160;2022-11-25T04:36:57;96982.91;;;4.27;100.00
13594;BME280;6449;47.666;9.160;2022-11-25T04:41:50;96982.44;;;4.36;100.00
13594;BME280;6449;47.666;9.160;2022-11-25T04:47:04;96996.56;;;4.47;100.00
13594;BME280;6449;47.666;9.160;2022-11-25T04:52:00;96991.06;;;4.54;100.00
13594;BME280;6449;47.666;9.160;2022-11-25T04:56:53;96993.03;;;4.66;100.00
13594;BME280;6449;47.666;9.160;2022-11-25T05:01:47;96994.63;;;4.68;100.00
13594;BME280;6449;47.666;9.160;2022-11-25T05:06:40;96987.44;;;4.73;100.00
13594;BME280;6449;47.666;9.160;2022-11-25T05:11:35;96974.78;;;5.00;100.00
13594;BME280;6449;47.666;9.160;2022-11-25T05:16:28;96990.00;;;5.08;100.00
13594;BME280;6449;47.666;9.160;2022-11-25T05:21:21;96993.00;;;4.83;100.00
13594;BME280;6449;47.666;9.160;2022-11-25T05:26:15;96995.78;;;4.63;100.00
13594;BME280;6449;47.666;9.160;2022-11-25T05:31:10;96989.38;;;4.53;100.00
13594;BME280;6449;47.666;9.160;2022-11-25T05:36:04;96992.75;;;4.55;100.00
13594;BME280;6449;47.666;9.160;2022-11-25T05:41:02;97005.56;;;4.40;100.00
13594;BME280;6449;47.666;9.160;2022-11-25T05:45:55;97010.75;;;4.40;100.00
13594;BME280;6449;47.666;9.160;2022-11-25T05:50:50;97011.28;;;4.47;100.00
13594;BME280;6449;47.666;9.160;2022-11-25T05:55:44;97005.63;;;4.56;100.00
13594;BME280;6449;47.666;9.160;2022-11-25T06:00:37;97011.88;;;4.52;100.00
13594;BME280;6449;47.666;9.160;2022-11-25T06:05:33;97007.09;;;4.62;100.00
13594;BME280;6449;47.666;9.160;2022-11-25T06:10:28;97010.69;;;4.59;100.00
13594;BME280;6449;47.666;9.160;2022-11-25T06:15:21;97019.84;;;4.49;100.00
13594;BME280;6449;47.666;9.160;2022-11-25T06:20:15;97012.50;;;4.57;100.00
13594;BME280;6449;47.666;9.160;2022-11-25T06:25:09;97011.75;;;4.55;100.00
13594;BME280;6449;47.666;9.160;2022-11-25T06:30:06;97016.72;;;4.60;100.00
13594;BME280;6449;47.666;9.160;2022-11-25T06:35:00;97022.13;;;4.55;100.00
13594;BME280;6449;47.666;9.160;2022-11-25T06:39:53;97031.59;;;4.56;100.00
13594;BME280;6449;47.666;9.160;2022-11-25T06:44:46;97035.56;;;4.63;100.00
13594;BME280;6449;47.666;9.160;2022-11-25T06:49:41;97042.91;;;4.55;100.00
13594;BME280;6449;47.666;9.160;2022-11-25T06:54:35;97055.69;;;4.24;100.00
13594;BME280;6449;47.666;9.160;2022-11-25T06:59:32;97053.59;;;4.32;100.00
13594;BME280;6449;47.666;9.160;2022-11-25T07:04:25;97056.03;;;4.52;100.00
13594;BME280;6449;47.666;9.160;2022-11-25T07:09:20;97066.72;;;4.46;100.00
13594;BME280;6449;47.666;9.160;2022-11-25T07:14:17;97078.75;;;4.30;100.00
13594;BME280;6449;47.666;9.160;2022-11-25T07:19:13;97073.03;;;4.40;100.00
13594;BME280;6449;47.666;9.160;2022-11-25T07:24:09;97078.09;;;4.43;100.00
13594;BME280;6449;47.666;9.160;2022-11-25T07:29:09;97084.31;;;4.58;100.00
13594;BME280;6449;47.666;9.160;2022-11-25T07:34:23;97101.38;;;4.45;100.00
13594;BME280;6449;47.666;9.160;2022-11-25T07:39:19;97089.19;;;4.64;100.00
13594;BME280;6449;47.666;9.160;2022-11-25T07:44:14;97104.06;;;4.78;100.00
13594;BME280;6449;47.666;9.160;2022-11-25T07:49:12;97106.84;;;4.92;100.00
13594;BME280;6449;47.666;9.160;2022-11-25T07:54:08;97104.69;;;5.18;100.00
13594;BME280;6449;47.666;9.160;2022-11-25T07:59:03;97117.31;;;5.08;100.00
13594;BME280;6449;47.666;9.160;2022-11-25T08:03:58;97122.50;;;5.08;100.00
13594;BME280;6449;47.666;9.160;2022-11-25T08:08:53;97111.47;;;5.20;100.00
13594;BME280;6449;47.666;9.160;2022-11-25T08:13:47;97118.59;;;5.34;100.00
13594;BME280;6449;47.666;9.160;2022-11-25T08:18:41;97115.75;;;5.39;100.00
13594;BME280;6449;47.666;9.160;2022-11-25T08:23:38;97123.22;;;5.45;100.00
13594;BME280;6449;47.666;9.160;2022-11-25T08:28:33;97120.81;;;5.58;100.00
13594;BME280;6449;47.666;9.160;2022-11-25T08:33:26;97120.16;;;5.70;100.00
13594;BME280;6449;47.666;9.160;2022-11-25T08:38:20;97123.91;;;5.82;100.00
13594;BME280;6449;47.666;9.160;2022-11-25T08:43:15;97126.00;;;5.91;100.00
13594;BME280;6449;47.666;9.160;2022-11-25T08:48:08;97128.00;;;5.86;100.00
13594;BME280;6449;47.666;9.160;2022-11-25T08:53:02;97126.09;;;5.89;100.00
13594;BME280;6449;47.666;9.160;2022-11-25T08:57:55;97141.00;;;6.03;100.00
13594;BME280;6449;47.666;9.160;2022-11-25T09:02:50;97147.22;;;6.16;100.00
13594;BME280;6449;47.666;9.160;2022-11-25T09:07:43;97142.34;;;6.26;100.00
13594;BME280;6449;47.666;9.160;2022-11-25T09:12:37;97139.59;;;6.45;100.00
13594;BME280;6449;47.666;9.160;2022-11-25T09:17:30;97149.47;;;6.54;100.00
13594;BME280;6449;47.666;9.160;2022-11-25T09:22:26;97149.47;;;6.54;100.00
13594;BME280;6449;47.666;9.160;2022-11-25T09:27:20;97156.19;;;6.58;100.00
13594;BME280;6449;47.666;9.160;2022-11-25T09:32:13;97160.06;;;6.51;100.00
13594;BME280;6449;47.666;9.160;2022-11-25T09:37:06;97179.06;;;6.53;100.00
13594;BME280;6449;47.666;9.160;2022-11-25T09:42:20;97182.38;;;6.71;100.00
13594;BME280;6449;47.666;9.160;2022-11-25T09:47:46;97187.28;;;6.77;100.00
13594;BME280;6449;47.666;9.160;2022-11-25T09:52:59;97180.50;;;7.04;100.00
13594;BME280;6449;47.666;9.160;2022-11-25T09:58:09;97186.38;;;7.08;100.00
13594;BME280;6449;47.666;9.160;2022-11-25T10:03:13;97197.91;;;7.04;100.00
13594;BME280;6449;47.666;9.160;2022-11-25T10:08:15;97208.59;;;6.99;100.00
13594;BME280;6449;47.666;9.160;2022-11-25T10:13:19;97208.50;;;7.01;100.00
13594;BME280;6449;47.666;9.160;2022-11-25T10:18:22;97212.03;;;7.00;100.00
13594;BME280;6449;47.666;9.160;2022-11-25T10:23:22;97214.91;;;6.95;100.00
13594;BME280;6449;47.666;9.160;2022-11-25T10:28:22;97209.09;;;6.90;100.00
13594;BME280;6449;47.666;9.160;2022-11-25T10:33:19;97215.00;;;6.78;100.00
13594;BME280;6449;47.666;9.160;2022-11-25T10:38:19;97208.97;;;6.77;100.00
13594;BME280;6449;47.666;9.160;2022-11-25T10:43:15;97204.94;;;6.88;100.00
13594;BME280;6449;47.666;9.160;2022-11-25T10:48:24;97203.56;;;6.96;100.00
13594;BME280;6449;47.666;9.160;2022-11-25T10:53:26;97208.25;;;7.05;100.00
13594;BME280;6449;47.666;9.160;2022-11-25T10:58:28;97192.25;;;7.12;100.00
13594;BME280;6449;47.666;9.160;2022-11-25T11:03:25;97183.13;;;7.19;100.00
13594;BME280;6449;47.666;9.160;2022-11-25T11:08:27;97173.97;;;7.27;100.00
13594;BME280;6449;47.666;9.160;2022-11-25T11:13:24;97173.69;;;7.32;100.00
13594;BME280;6449;47.666;9.160;2022-11-25T11:18:26;97173.53;;;7.49;100.00
13594;BME280;6449;47.666;9.160;2022-11-25T11:23:20;97163.22;;;7.62;100.00
13594;BME280;6449;47.666;9.160;2022-11-25T11:28:29;97159.03;;;7.74;100.00
13594;BME280;6449;47.666;9.160;2022-11-25T11:33:38;97164.06;;;7.77;100.00
13594;BME280;6449;47.666;9.160;2022-11-25T11:38:36;97163.63;;;7.84;100.00
13594;BME280;6449;47.666;9.160;2022-11-25T11:43:54;97166.13;;;7.86;100.00
13594;BME280;6449;47.666;9.160;2022-11-25T11:49:10;97169.19;;;7.93;100.00
13594;BME280;6449;47.666;9.160;2022-11-25T11:54:15;97169.41;;;7.90;100.00
13594;BME280;6449;47.666;9.160;2022-11-25T11:59:44;97166.50;;;7.94;100.00
13594;BME280;6449;47.666;9.160;2022-11-25T12:04:46;97157.63;;;8.11;100.00
13594;BME280;6449;47.666;9.160;2022-11-25T12:09:50;97177.69;;;8.39;100.00
13594;BME280;6449;47.666;9.160;2022-11-25T12:14:50;97206.13;;;8.44;100.00
13594;BME280;6449;47.666;9.160;2022-11-25T12:19:55;97216.09;;;8.51;100.00
13594;BME280;6449;47.666;9.160;2022-11-25T12:24:58;97226.25;;;8.56;100.00
13594;BME280;6449;47.666;9.160;2022-11-25T12:30:02;97226.63;;;8.64;100.00
13594;BME280;6449;47.666;9.160;2022-11-25T12:35:03;97225.97;;;8.75;100.00
13594;BME280;6449;47.666;9.160;2022-11-25T12:40:06;97245.50;;;8.69;100.00
13594;BME280;6449;47.666;9.160;2022-11-25T12:45:13;97236.59;;;8.72;100.00
13594;BME280;6449;47.666;9.160;2022-11-25T12:50:17;97242.78;;;8.71;100.00
13594;BME280;6449;47.666;9.160;2022-11-25T12:55:16;97238.03;;;8.63;100.00
13594;BME280;6449;47.666;9.160;2022-11-25T13:00:17;97245.38;;;8.71;100.00
13594;BME280;6449;47.666;9.160;2022-11-25T13:06:00;97254.91;;;8.57;100.00
13594;BME280;6449;47.666;9.160;2022-11-25T13:11:22;97247.09;;;8.43;100.00
13594;BME280;6449;47.666;9.160;2022-11-25T13:16:22;97249.72;;;8.43;100.00
13594;BME280;6449;47.666;9.160;2022-11-25T13:21:19;97247.44;;;8.51;100.00
13594;BME280;6449;47.666;9.160;2022-11-25T13:31:55;97273.50;;;8.53;100.00
13594;BME280;6449;47.666;9.160;2022-11-25T13:36:54;97272.66;;;8.52;100.00
13594;BME280;6449;47.666;9.160;2022-11-25T13:42:01;97284.53;;;8.58;100.00
13594;BME280;6449;47.666;9.160;2022-11-25T13:46:58;97280.84;;;8.46;100.00
13594;BME280;6449;47.666;9.160;2022-11-25T13:51:57;97272.56;;;8.54;100.00
13594;BME280;6449;47.666;9.160;2022-11-25T13:57:23;97271.56;;;8.42;100.00
13594;BME280;6449;47.666;9.160;2022-11-25T14:02:45;97284.69;;;8.40;100.00
13594;BME280;6449;47.666;9.160;2022-11-25T14:07:51;97287.13;;;8.44;100.00
13594;BME280;6449;47.666;9.160;2022-11-25T14:13:07;97290.84;;;8.39;100.00
13594;BME280;6449;47.666;9.160;2022-11-25T14:18:42;97304.72;;;8.26;100.00
13594;BME280;6449;47.666;9.160;2022-11-25T14:24:16;97300.63;;;8.22;100.00
13594;BME280;6449;47.666;9.160;2022-11-25T14:29:21;97315.19;;;8.26;100.00
13594;BME280;6449;47.666;9.160;2022-11-25T14:34:20;97329.31;;;8.37;100.00
13594;BME280;6449;47.666;9.160;2022-11-25T14:39:24;97340.94;;;8.32;100.00
13594;BME280;6449;47.666;9.160;2022-11-25T14:44:23;97337.34;;;8.19;100.00
13594;BME280;6449;47.666;9.160;2022-11-25T14:49:17;97356.88;;;8.27;100.00
13594;BME280;6449;47.666;9.160;2022-11-25T14:54:32;97357.72;;;8.28;100.00
13594;BME280;6449;47.666;9.160;2022-11-25T14:59:26;97357.59;;;8.15;100.00
13594;BME280;6449;47.666;9.160;2022-11-25T15:04:22;97352.53;;;8.12;100.00
13594;BME280;6449;47.666;9.160;2022-11-25T15:09:21;97361.69;;;8.19;100.00
13594;BME280;6449;47.666;9.160;2022-11-25T15:14:24;97352.66;;;8.10;100.00
13594;BME280;6449;47.666;9.160;2022-11-25T15:19:21;97351.41;;;8.02;100.00
13594;BME280;6449;47.666;9.160;2022-11-25T15:24:25;97351.75;;;7.96;100.00
13594;BME280;6449;47.666;9.160;2022-11-25T15:29:21;97359.06;;;8.05;100.00
13594;BME280;6449;47.666;9.160;2022-11-25T15:34:16;97369.16;;;8.11;100.00
13594;BME280;6449;47.666;9.160;2022-11-25T15:39:16;97369.22;;;8.09;100.00
13594;BME280;6449;47.666;9.160;2022-11-25T15:44:23;97379.97;;;8.19;100.00
13594;BME280;6449;47.666;9.160;2022-11-25T15:49:18;97399.38;;;8.15;100.00
13594;BME280;6449;47.666;9.160;2022-11-25T15:54:20;97401.22;;;8.13;100.00
13594;BME280;6449;47.666;9.160;2022-11-25T15:59:46;97404.91;;;7.95;100.00
13594;BME280;6449;47.666;9.160;2022-11-25T16:04:40;97414.09;;;7.86;100.00
13594;BME280;6449;47.666;9.160;2022-11-25T16:09:33;97411.34;;;7.73;100.00
13594;BME280;6449;47.666;9.160;2022-11-25T16:14:28;97420.34;;;7.68;100.00
13594;BME280;6449;47.666;9.160;2022-11-25T16:19:32;97432.88;;;7.61;100.00
13594;BME280;6449;47.666;9.160;2022-11-25T16:24:38;97446.13;;;7.58;100.00
13594;BME280;6449;47.666;9.160;2022-11-25T16:29:35;97459.16;;;7.58;100.00
13594;BME280;6449;47.666;9.160;2022-11-25T16:34:31;97460.00;;;7.58;100.00
13594;BME280;6449;47.666;9.160;2022-11-25T16:39:25;97478.41;;;7.55;100.00
13594;BME280;6449;47.666;9.160;2022-11-25T16:44:21;97476.41;;;7.60;100.00
13594;BME280;6449;47.666;9.160;2022-11-25T16:49:17;97486.44;;;7.68;100.00
13594;BME280;6449;47.666;9.160;2022-11-25T16:54:12;97491.91;;;7.64;100.00
13594;BME280;6449;47.666;9.160;2022-11-25T16:59:12;97501.50;;;7.63;100.00
13594;BME280;6449;47.666;9.160;2022-11-25T17:04:10;97504.25;;;7.60;100.00
13594;BME280;6449;47.666;9.160;2022-11-25T17:09:04;97514.88;;;7.57;100.00
13594;BME280;6449;47.666;9.160;2022-11-25T17:14:04;97513.34;;;7.53;100.00
13594;BME280;6449;47.666;9.160;2022-11-25T17:18:59;97519.75;;;7.47;100.00
13594;BME280;6449;47.666;9.160;2022-11-25T17:23:54;97534.00;;;7.40;100.00
13594;BME280;6449;47.666;9.160;2022-11-25T17:28:54;97531.06;;;7.30;100.00
13594;BME280;6449;47.666;9.160;2022-11-25T17:33:50;97532.91;;;7.28;100.00
13594;BME280;6449;47.666;9.160;2022-11-25T17:38:43;97538.63;;;7.19;100.00
13594;BME280;6449;47.666;9.160;2022-11-25T17:43:37;97546.31;;;7.05;100.00
13594;BME280;6449;47.666;9.160;2022-11-25T17:48:31;97553.41;;;7.01;100.00
13594;BME280;6449;47.666;9.160;2022-11-25T17:53:26;97556.13;;;7.00;100.00
13594;BME280;6449;47.666;9.160;2022-11-25T17:58:19;97562.72;;;6.90;100.00
13594;BME280;6449;47.666;9.160;2022-11-25T18:03:15;97573.75;;;6.77;100.00
13594;BME280;6449;47.666;9.160;2022-11-25T18:08:09;97578.66;;;6.83;100.00
13594;BME280;6449;47.666;9.160;2022-11-25T18:13:04;97587.00;;;6.73;100.00
13594;BME280;6449;47.666;9.160;2022-11-25T18:18:04;97597.13;;;6.79;100.00
13594;BME280;6449;47.666;9.160;2022-11-25T18:22:58;97604.03;;;6.80;100.00
13594;BME280;6449;47.666;9.160;2022-11-25T18:27:53;97598.72;;;6.81;100.00
13594;BME280;6449;47.666;9.160;2022-11-25T18:32:49;97612.97;;;6.74;100.00
13594;BME280;6449;47.666;9.160;2022-11-25T18:37:43;97633.22;;;6.69;100.00
13594;BME280;6449;47.666;9.160;2022-11-25T18:42:37;97644.88;;;6.79;100.00
13594;BME280;6449;47.666;9.160;2022-11-25T18:47:31;97651.47;;;6.87;100.00
13594;BME280;6449;47.666;9.160;2022-11-25T18:52:26;97645.19;;;6.91;100.00
13594;BME280;6449;47.666;9.160;2022-11-25T18:57:19;97653.72;;;6.94;100.00
13594;BME280;6449;47.666;9.160;2022-11-25T19:02:16;97672.19;;;6.90;100.00
13594;BME280;6449;47.666;9.160;2022-11-25T19:07:10;97671.78;;;6.80;100.00
13594;BME280;6449;47.666;9.160;2022-11-25T19:12:08;97679.25;;;6.88;100.00
13594;BME280;6449;47.666;9.160;2022-11-25T19:17:11;97692.91;;;6.93;100.00
13594;BME280;6449;47.666;9.160;2022-11-25T19:22:11;97702.94;;;7.00;100.00
13594;BME280;6449;47.666;9.160;2022-11-25T19:27:17;97704.47;;;7.04;100.00
13594;BME280;6449;47.666;9.160;2022-11-25T19:32:19;97718.19;;;7.08;100.00
13594;BME280;6449;47.666;9.160;2022-11-25T19:37:17;97730.34;;;7.09;100.00
13594;BME280;6449;47.666;9.160;2022-11-25T19:42:13;97731.00;;;7.13;100.00
13594;BME280;6449;47.666;9.160;2022-11-25T19:47:14;97734.41;;;7.15;100.00
13594;BME280;6449;47.666;9.160;2022-11-25T19:52:14;97738.63;;;7.17;100.00
13594;BME280;6449;47.666;9.160;2022-11-25T19:57:15;97742.00;;;7.19;100.00
13594;BME280;6449;47.666;9.160;2022-11-25T20:02:14;97755.94;;;7.18;100.00
13594;BME280;6449;47.666;9.160;2022-11-25T20:07:10;97767.09;;;7.03;100.00
13594;BME280;6449;47.666;9.160;2022-11-25T20:12:19;97779.06;;;7.07;100.00
13594;BME280;6449;47.666;9.160;2022-11-25T20:17:23;97781.47;;;7.12;100.00
13594;BME280;6449;47.666;9.160;2022-11-25T20:22:21;97787.31;;;7.17;100.00
13594;BME280;6449;47.666;9.160;2022-11-25T20:27:17;97797.63;;;7.20;100.00
13594;BME280;6449;47.666;9.160;2022-11-25T20:32:24;97800.06;;;7.23;100.00
13594;BME280;6449;47.666;9.160;2022-11-25T20:37:19;97800.91;;;7.23;100.00
13594;BME280;6449;47.666;9.160;2022-11-25T20:42:16;97796.59;;;7.22;100.00
13594;BME280;6449;47.666;9.160;2022-11-25T20:47:14;97805.78;;;7.12;100.00
13594;BME280;6449;47.666;9.160;2022-11-25T20:52:18;97818.13;;;7.08;100.00
13594;BME280;6449;47.666;9.160;2022-11-25T20:57:13;97821.78;;;7.04;100.00
13594;BME280;6449;47.666;9.160;2022-11-25T21:02:08;97827.31;;;6.98;100.00
13594;BME280;6449;47.666;9.160;2022-11-25T21:07:03;97826.00;;;7.07;100.00
13594;BME280;6449;47.666;9.160;2022-11-25T21:11:56;97823.09;;;7.13;100.00
13594;BME280;6449;47.666;9.160;2022-11-25T21:16:50;97831.09;;;7.10;100.00
13594;BME280;6449;47.666;9.160;2022-11-25T21:21:48;97851.66;;;6.97;100.00
13594;BME280;6449;47.666;9.160;2022-11-25T21:26:43;97844.41;;;7.04;100.00
13594;BME280;6449;47.666;9.160;2022-11-25T21:31:37;97850.28;;;7.09;100.00
13594;BME280;6449;47.666;9.160;2022-11-25T21:36:30;97860.63;;;7.11;100.00
13594;BME280;6449;47.666;9.160;2022-11-25T21:41:26;97866.47;;;7.16;100.00
13594;BME280;6449;47.666;9.160;2022-11-25T21:46:21;97864.78;;;7.15;100.00
13594;BME280;6449;47.666;9.160;2022-11-25T21:51:16;97871.59;;;7.17;100.00
13594;BME280;6449;47.666;9.160;2022-11-25T21:56:18;97869.91;;;7.16;100.00
13594;BME280;6449;47.666;9.160;2022-11-25T22:01:15;97877.19;;;7.09;100.00
13594;BME280;6449;47.666;9.160;2022-11-25T22:06:18;97876.00;;;6.98;100.00
13594;BME280;6449;47.666;9.160;2022-11-25T22:11:16;97879.28;;;6.82;100.00
13594;BME280;6449;47.666;9.160;2022-11-25T22:16:17;97890.03;;;6.75;100.00
13594;BME280;6449;47.666;9.160;2022-11-25T22:21:14;97879.69;;;6.73;100.00
13594;BME280;6449;47.666;9.160;2022-11-25T22:26:12;97886.59;;;6.74;100.00
13594;BME280;6449;47.666;9.160;2022-11-25T22:31:11;97891.44;;;6.63;100.00
13594;BME280;6449;47.666;9.160;2022-11-25T22:36:28;97894.75;;;6.67;100.00
13594;BME280;6449;47.666;9.160;2022-11-25T22:41:22;97897.94;;;6.73;100.00
13594;BME280;6449;47.666;9.160;2022-11-25T22:46:16;97903.97;;;6.74;100.00
13594;BME280;6449;47.666;9.160;2022-11-25T22:51:15;97904.34;;;6.66;100.00
13594;BME280;6449;47.666;9.160;2022-11-25T22:56:16;97909.66;;;6.63;100.00
13594;BME280;6449;47.666;9.160;2022-11-25T23:01:13;97903.53;;;6.64;100.00
13594;BME280;6449;47.666;9.160;2022-11-25T23:06:12;97906.97;;;6.46;100.00
13594;BME280;6449;47.666;9.160;2022-11-25T23:11:05;97922.03;;;6.17;100.00
13594;BME280;6449;47.666;9.160;2022-11-25T23:16:02;97913.06;;;6.24;100.00
13594;BME280;6449;47.666;9.160;2022-11-25T23:20:56;97918.13;;;6.27;100.00
13594;BME280;6449;47.666;9.160;2022-11-25T23:25:51;97920.72;;;6.07;100.00
13594;BME280;6449;47.666;9.160;2022-11-25T23:30:49;97931.88;;;5.89;100.00
13594;BME280;6449;47.666;9.160;2022-11-25T23:35:43;97928.78;;;6.01;100.00
13594;BME280;6449;47.666;9.160;2022-11-25T23:40:38;97932.97;;;6.05;100.00
13594;BME280;6449;47.666;9.160;2022-11-25T23:45:32;97936.56;;;6.02;100.00
13594;BME280;6449;47.666;9.160;2022-11-25T23:50:30;97938.34;;;6.00;100.00
13594;BME280;6449;47.666;9.160;2022-11-25T23:55:30;97937.56;;;5.76;100.00
